TWA561 KPHL-KBOS
Flight info
| Callsign | TWA561 |
|---|---|
| Flight time | 0h 47m |
| Altitude | 31000 |
| Route | DITCH LUIGI HNNAH ORW WOONS2 |
| Aircraft | L101/H-SDFHIWXY/C |
Departure
| Time | 2026-05-05 17:00 |
|---|---|
| Airport | Philadelphia International Airport (KPHL) |
Arrival
| Time | 2026-05-05 17:47 |
|---|---|
| Airport | Boston Logan International Airport (KBOS) |
| Time | Latitude | Longitude | Altitude | Speed | Heading |
|---|---|---|---|---|---|
| 2026-05-05 16:44 | 39.87404 | -75.25050 | 30 ft | 0 kts | 334° |
| 2026-05-05 16:49 | 39.87382 | -75.25036 | 29 ft | 4 kts | 334° |
| 2026-05-05 16:49 | 39.87363 | -75.25024 | 28 ft | 4 kts | 327° |
| 2026-05-05 16:49 | 39.87342 | -75.25002 | 29 ft | 4 kts | 311° |
| 2026-05-05 16:49 | 39.87327 | -75.24974 | 30 ft | 4 kts | 301° |
| 2026-05-05 16:50 | 39.87312 | -75.24946 | 30 ft | 4 kts | 316° |
| 2026-05-05 16:50 | 39.87296 | -75.24921 | 30 ft | 4 kts | 278° |
| 2026-05-05 16:50 | 39.87300 | -75.24901 | 30 ft | 4 kts | 187° |
| 2026-05-05 16:50 | 39.87325 | -75.24906 | 30 ft | 4 kts | 166° |
| 2026-05-05 16:51 | 39.87331 | -75.24908 | 30 ft | 0 kts | 166° |
| 2026-05-05 16:53 | 39.87319 | -75.24904 | 30 ft | 4 kts | 166° |
| 2026-05-05 16:54 | 39.87279 | -75.24891 | 30 ft | 7 kts | 166° |
| 2026-05-05 16:54 | 39.87256 | -75.24883 | 30 ft | 0 kts | 165° |
| 2026-05-05 16:55 | 39.87241 | -75.24878 | 29 ft | 4 kts | 165° |
| 2026-05-05 16:55 | 39.87200 | -75.24864 | 30 ft | 8 kts | 165° |
| 2026-05-05 16:56 | 39.87147 | -75.24819 | 30 ft | 11 kts | 114° |
| 2026-05-05 16:56 | 39.87155 | -75.24698 | 30 ft | 16 kts | 76° |
| 2026-05-05 16:56 | 39.87189 | -75.24534 | 29 ft | 20 kts | 77° |
| 2026-05-05 16:56 | 39.87227 | -75.24340 | 30 ft | 24 kts | 76° |
| 2026-05-05 16:57 | 39.87250 | -75.24167 | 30 ft | 11 kts | 121° |
| 2026-05-05 16:57 | 39.87192 | -75.24124 | 29 ft | 12 kts | 154° |
| 2026-05-05 16:57 | 39.87098 | -75.24082 | 30 ft | 16 kts | 165° |
| 2026-05-05 16:57 | 39.86981 | -75.24043 | 28 ft | 19 kts | 166° |
| 2026-05-05 16:58 | 39.86911 | -75.23963 | 30 ft | 15 kts | 93° |
| 2026-05-05 16:58 | 39.86939 | -75.23791 | 30 ft | 22 kts | 76° |
| 2026-05-05 16:58 | 39.86980 | -75.23588 | 30 ft | 23 kts | 75° |
| 2026-05-05 16:58 | 39.87003 | -75.23475 | 30 ft | 6 kts | 81° |
| 2026-05-05 16:59 | 39.86970 | -75.23420 | 30 ft | 11 kts | 152° |
| 2026-05-05 16:59 | 39.86902 | -75.23431 | 30 ft | 9 kts | 231° |
| 2026-05-05 16:59 | 39.86876 | -75.23540 | 30 ft | 24 kts | 256° |
| 2026-05-05 16:59 | 39.86755 | -75.24154 | 31 ft | 118 kts | 254° |
| 2026-05-05 17:00 | 39.86484 | -75.25510 | 198 ft | 184 kts | 253° |
| 2026-05-05 17:00 | 39.86126 | -75.27165 | 1242 ft | 189 kts | 252° |
| 2026-05-05 17:00 | 39.85645 | -75.28748 | 2671 ft | 186 kts | 241° |
| 2026-05-05 17:00 | 39.84932 | -75.30215 | 3808 ft | 201 kts | 235° |
| 2026-05-05 17:01 | 39.84051 | -75.31811 | 4718 ft | 235 kts | 233° |
| 2026-05-05 17:01 | 39.83035 | -75.33613 | 5165 ft | 255 kts | 233° |
| 2026-05-05 17:01 | 39.81979 | -75.35472 | 5069 ft | 253 kts | 233° |
| 2026-05-05 17:01 | 39.80780 | -75.37101 | 4930 ft | 250 kts | 214° |
| 2026-05-05 17:02 | 39.79165 | -75.37865 | 4910 ft | 252 kts | 188° |
| 2026-05-05 17:02 | 39.77416 | -75.37583 | 4964 ft | 260 kts | 163° |
| 2026-05-05 17:02 | 39.75882 | -75.36273 | 5081 ft | 272 kts | 138° |
| 2026-05-05 17:02 | 39.74867 | -75.34162 | 5202 ft | 282 kts | 114° |
| 2026-05-05 17:03 | 39.74574 | -75.31549 | 5445 ft | 310 kts | 91° |
| 2026-05-05 17:03 | 39.74766 | -75.28725 | 6326 ft | 314 kts | 86° |
| 2026-05-05 17:03 | 39.75051 | -75.25958 | 7480 ft | 308 kts | 85° |
| 2026-05-05 17:03 | 39.75331 | -75.23140 | 8194 ft | 323 kts | 86° |
| 2026-05-05 17:04 | 39.75595 | -75.20215 | 8918 ft | 333 kts | 87° |
| 2026-05-05 17:04 | 39.75840 | -75.17242 | 10033 ft | 331 kts | 87° |
| 2026-05-05 17:04 | 39.76078 | -75.14207 | 10677 ft | 347 kts | 87° |
| 2026-05-05 17:04 | 39.76325 | -75.10950 | 10894 ft | 377 kts | 87° |
| 2026-05-05 17:05 | 39.76589 | -75.07421 | 11000 ft | 406 kts | 86° |
| 2026-05-05 17:05 | 39.76864 | -75.03670 | 11133 ft | 427 kts | 86° |
| 2026-05-05 17:05 | 39.77154 | -74.99795 | 11722 ft | 432 kts | 86° |
| 2026-05-05 17:05 | 39.77455 | -74.95932 | 12776 ft | 427 kts | 85° |
| 2026-05-05 17:06 | 39.77763 | -74.92070 | 13462 ft | 435 kts | 85° |
| 2026-05-05 17:06 | 39.78073 | -74.88118 | 14053 ft | 441 kts | 85° |
| 2026-05-05 17:06 | 39.78380 | -74.84155 | 14843 ft | 444 kts | 85° |
| 2026-05-05 17:06 | 39.78690 | -74.80163 | 15606 ft | 446 kts | 84° |
| 2026-05-05 17:07 | 39.79331 | -74.76212 | 16351 ft | 449 kts | 69° |
| 2026-05-05 17:07 | 39.80766 | -74.72687 | 17152 ft | 447 kts | 50° |
| 2026-05-05 17:07 | 39.82891 | -74.69754 | 17978 ft | 445 kts | 39° |
| 2026-05-05 17:07 | 39.85246 | -74.67118 | 18704 ft | 448 kts | 37° |
| 2026-05-05 17:08 | 39.87621 | -74.64469 | 19422 ft | 452 kts | 38° |
| 2026-05-05 17:08 | 39.90003 | -74.61767 | 20118 ft | 457 kts | 38° |
| 2026-05-05 17:08 | 39.92442 | -74.59082 | 20849 ft | 461 kts | 37° |
| 2026-05-05 17:08 | 39.94952 | -74.56462 | 21607 ft | 464 kts | 36° |
| 2026-05-05 17:09 | 39.97519 | -74.53881 | 22346 ft | 469 kts | 35° |
| 2026-05-05 17:09 | 40.00096 | -74.51319 | 22795 ft | 456 kts | 35° |
| 2026-05-05 17:09 | 40.02542 | -74.48874 | 22864 ft | 431 kts | 35° |
| 2026-05-05 17:09 | 40.04890 | -74.46520 | 22916 ft | 423 kts | 35° |
| 2026-05-05 17:10 | 40.07201 | -74.44219 | 22924 ft | 429 kts | 34° |
| 2026-05-05 17:10 | 40.09694 | -74.41753 | 22947 ft | 457 kts | 35° |
| 2026-05-05 17:10 | 40.12252 | -74.39210 | 22900 ft | 466 kts | 35° |
| 2026-05-05 17:10 | 40.14843 | -74.36618 | 22900 ft | 472 kts | 35° |
| 2026-05-05 17:11 | 40.17457 | -74.34000 | 22910 ft | 475 kts | 35° |
| 2026-05-05 17:11 | 40.20089 | -74.31370 | 22924 ft | 476 kts | 35° |
| 2026-05-05 17:11 | 40.22723 | -74.28740 | 22931 ft | 476 kts | 35° |
| 2026-05-05 17:11 | 40.25360 | -74.26113 | 22933 ft | 476 kts | 35° |
| 2026-05-05 17:12 | 40.27995 | -74.23485 | 22937 ft | 476 kts | 35° |
| 2026-05-05 17:12 | 40.30594 | -74.20884 | 22935 ft | 477 kts | 35° |
| 2026-05-05 17:12 | 40.33225 | -74.18248 | 22934 ft | 477 kts | 35° |
| 2026-05-05 17:12 | 40.35863 | -74.15604 | 22930 ft | 477 kts | 35° |
| 2026-05-05 17:13 | 40.38496 | -74.12963 | 22929 ft | 477 kts | 35° |
| 2026-05-05 17:13 | 40.41131 | -74.10319 | 22929 ft | 477 kts | 35° |
| 2026-05-05 17:13 | 40.43767 | -74.07668 | 22911 ft | 477 kts | 36° |
| 2026-05-05 17:13 | 40.46225 | -74.04733 | 22903 ft | 480 kts | 47° |
| 2026-05-05 17:14 | 40.48241 | -74.01253 | 22936 ft | 480 kts | 54° |
| 2026-05-05 17:14 | 40.50136 | -73.97638 | 22959 ft | 481 kts | 53° |
| 2026-05-05 17:14 | 40.52140 | -73.94113 | 22947 ft | 482 kts | 51° |
| 2026-05-05 17:14 | 40.54220 | -73.90661 | 22946 ft | 481 kts | 50° |
| 2026-05-05 17:15 | 40.56280 | -73.87193 | 22940 ft | 481 kts | 52° |
| 2026-05-05 17:15 | 40.58280 | -73.83658 | 22943 ft | 482 kts | 53° |
| 2026-05-05 17:15 | 40.60237 | -73.80080 | 22945 ft | 482 kts | 53° |
| 2026-05-05 17:15 | 40.62188 | -73.76490 | 22943 ft | 482 kts | 53° |
| 2026-05-05 17:16 | 40.64144 | -73.72906 | 22944 ft | 482 kts | 53° |
| 2026-05-05 17:16 | 40.66107 | -73.69321 | 22948 ft | 483 kts | 53° |
| 2026-05-05 17:16 | 40.68068 | -73.65732 | 22943 ft | 483 kts | 53° |
| 2026-05-05 17:16 | 40.70024 | -73.62143 | 22942 ft | 483 kts | 53° |
| 2026-05-05 17:17 | 40.71980 | -73.58540 | 22943 ft | 483 kts | 53° |
| 2026-05-05 17:17 | 40.73931 | -73.54935 | 22944 ft | 483 kts | 53° |
| 2026-05-05 17:17 | 40.75881 | -73.51328 | 22943 ft | 483 kts | 53° |
| 2026-05-05 17:17 | 40.77835 | -73.47715 | 22943 ft | 483 kts | 53° |
| 2026-05-05 17:18 | 40.79785 | -73.44107 | 22957 ft | 484 kts | 53° |
| 2026-05-05 17:18 | 40.81738 | -73.40486 | 22947 ft | 484 kts | 53° |
| 2026-05-05 17:18 | 40.83689 | -73.36863 | 22943 ft | 484 kts | 53° |
| 2026-05-05 17:18 | 40.85641 | -73.33240 | 22941 ft | 484 kts | 53° |
| 2026-05-05 17:19 | 40.87568 | -73.29658 | 22915 ft | 484 kts | 53° |
| 2026-05-05 17:19 | 40.89513 | -73.26035 | 22923 ft | 484 kts | 53° |
| 2026-05-05 17:19 | 40.91458 | -73.22411 | 22933 ft | 483 kts | 53° |
| 2026-05-05 17:19 | 40.93403 | -73.18779 | 22926 ft | 483 kts | 53° |
| 2026-05-05 17:20 | 40.95343 | -73.15154 | 22951 ft | 483 kts | 53° |
| 2026-05-05 17:20 | 40.97288 | -73.11519 | 22953 ft | 483 kts | 53° |
| 2026-05-05 17:20 | 40.99229 | -73.07888 | 22945 ft | 484 kts | 53° |
| 2026-05-05 17:20 | 41.01172 | -73.04247 | 22943 ft | 484 kts | 53° |
| 2026-05-05 17:21 | 41.03107 | -73.00612 | 22947 ft | 484 kts | 53° |
| 2026-05-05 17:21 | 41.05046 | -72.96964 | 22923 ft | 484 kts | 53° |
| 2026-05-05 17:21 | 41.06953 | -72.93370 | 22928 ft | 483 kts | 54° |
| 2026-05-05 17:22 | 41.10809 | -72.86107 | 22916 ft | 479 kts | 54° |
| 2026-05-05 17:22 | 41.12719 | -72.82503 | 22925 ft | 476 kts | 54° |
| 2026-05-05 17:22 | 41.14615 | -72.78916 | 22923 ft | 474 kts | 54° |
| 2026-05-05 17:22 | 41.16506 | -72.75335 | 22923 ft | 474 kts | 54° |
| 2026-05-05 17:23 | 41.18398 | -72.71753 | 22923 ft | 474 kts | 54° |
| 2026-05-05 17:23 | 41.20291 | -72.68164 | 22922 ft | 474 kts | 54° |
| 2026-05-05 17:23 | 41.22179 | -72.64578 | 22923 ft | 474 kts | 54° |
| 2026-05-05 17:23 | 41.24041 | -72.61036 | 22928 ft | 474 kts | 54° |
| 2026-05-05 17:24 | 41.25925 | -72.57450 | 22923 ft | 474 kts | 54° |
| 2026-05-05 17:24 | 41.27809 | -72.53860 | 22933 ft | 473 kts | 55° |
| 2026-05-05 17:24 | 41.29691 | -72.50270 | 22924 ft | 470 kts | 55° |
| 2026-05-05 17:24 | 41.31507 | -72.46795 | 22448 ft | 448 kts | 55° |
| 2026-05-05 17:25 | 41.33258 | -72.43438 | 21588 ft | 435 kts | 54° |
| 2026-05-05 17:25 | 41.34389 | -72.41266 | 21057 ft | 427 kts | 54° |
| 2026-05-05 17:25 | 41.36609 | -72.36997 | 20077 ft | 412 kts | 54° |
| 2026-05-05 17:25 | 41.38231 | -72.33876 | 19349 ft | 409 kts | 54° |
| 2026-05-05 17:26 | 41.39828 | -72.30804 | 18635 ft | 409 kts | 54° |
| 2026-05-05 17:26 | 41.41441 | -72.27696 | 17926 ft | 407 kts | 53° |
| 2026-05-05 17:26 | 41.43041 | -72.24601 | 17111 ft | 405 kts | 53° |
| 2026-05-05 17:26 | 41.44633 | -72.21525 | 16318 ft | 401 kts | 53° |
| 2026-05-05 17:27 | 41.46209 | -72.18485 | 15585 ft | 397 kts | 53° |
| 2026-05-05 17:27 | 41.47774 | -72.15468 | 14839 ft | 394 kts | 53° |
| 2026-05-05 17:27 | 41.49324 | -72.12479 | 14100 ft | 390 kts | 53° |
| 2026-05-05 17:27 | 41.50861 | -72.09510 | 13346 ft | 388 kts | 52° |
| 2026-05-05 17:28 | 41.52390 | -72.06557 | 12583 ft | 386 kts | 53° |
| 2026-05-05 17:28 | 41.53902 | -72.03626 | 12070 ft | 381 kts | 52° |
| 2026-05-05 17:28 | 41.55499 | -72.00874 | 11558 ft | 379 kts | 45° |
| 2026-05-05 17:28 | 41.57332 | -71.98387 | 11287 ft | 373 kts | 40° |
| 2026-05-05 17:29 | 41.59221 | -71.95995 | 11135 ft | 375 kts | 40° |
| 2026-05-05 17:29 | 41.61091 | -71.93558 | 11049 ft | 376 kts | 42° |
| 2026-05-05 17:29 | 41.62944 | -71.91092 | 11028 ft | 376 kts | 41° |
| 2026-05-05 17:29 | 41.64815 | -71.88645 | 11004 ft | 376 kts | 41° |
| 2026-05-05 17:30 | 41.66707 | -71.86233 | 10997 ft | 376 kts | 40° |
| 2026-05-05 17:30 | 41.68619 | -71.83850 | 11017 ft | 376 kts | 40° |
| 2026-05-05 17:30 | 41.70537 | -71.81472 | 11011 ft | 376 kts | 40° |
| 2026-05-05 17:30 | 41.72451 | -71.79086 | 10993 ft | 376 kts | 40° |
| 2026-05-05 17:31 | 41.74355 | -71.76691 | 10994 ft | 375 kts | 40° |
| 2026-05-05 17:31 | 41.76254 | -71.74296 | 11035 ft | 376 kts | 40° |
| 2026-05-05 17:31 | 41.78134 | -71.71932 | 10991 ft | 376 kts | 40° |
| 2026-05-05 17:31 | 41.80042 | -71.69545 | 10980 ft | 375 kts | 40° |
| 2026-05-05 17:32 | 41.81950 | -71.67159 | 10987 ft | 376 kts | 40° |
| 2026-05-05 17:32 | 41.83861 | -71.64760 | 10989 ft | 376 kts | 40° |
| 2026-05-05 17:32 | 41.85737 | -71.62396 | 10873 ft | 360 kts | 40° |
| 2026-05-05 17:32 | 41.87537 | -71.60126 | 10346 ft | 351 kts | 40° |
| 2026-05-05 17:33 | 41.89293 | -71.57913 | 9847 ft | 342 kts | 40° |
| 2026-05-05 17:33 | 41.91006 | -71.55758 | 9327 ft | 334 kts | 40° |
| 2026-05-05 17:33 | 41.92682 | -71.53655 | 8820 ft | 327 kts | 40° |
| 2026-05-05 17:33 | 41.94404 | -71.51704 | 8302 ft | 322 kts | 31° |
| 2026-05-05 17:34 | 41.96277 | -71.50155 | 7828 ft | 320 kts | 25° |
| 2026-05-05 17:34 | 41.98236 | -71.48768 | 7372 ft | 317 kts | 22° |
| 2026-05-05 17:34 | 42.00195 | -71.47473 | 7188 ft | 313 kts | 21° |
| 2026-05-05 17:34 | 42.02164 | -71.46211 | 7046 ft | 314 kts | 21° |
| 2026-05-05 17:35 | 42.04142 | -71.44958 | 7020 ft | 314 kts | 21° |
| 2026-05-05 17:35 | 42.06127 | -71.43711 | 7004 ft | 315 kts | 21° |
| 2026-05-05 17:35 | 42.08117 | -71.42465 | 6984 ft | 316 kts | 21° |
| 2026-05-05 17:35 | 42.10109 | -71.41221 | 6984 ft | 315 kts | 21° |
| 2026-05-05 17:36 | 42.12098 | -71.39975 | 6987 ft | 315 kts | 21° |
| 2026-05-05 17:36 | 42.14084 | -71.38716 | 6992 ft | 315 kts | 20° |
| 2026-05-05 17:36 | 42.16059 | -71.37456 | 6975 ft | 314 kts | 21° |
| 2026-05-05 17:36 | 42.18014 | -71.36207 | 6968 ft | 315 kts | 21° |
| 2026-05-05 17:37 | 42.19992 | -71.34945 | 6955 ft | 315 kts | 21° |
| 2026-05-05 17:37 | 42.21331 | -71.34095 | 6967 ft | 315 kts | 21° |
| 2026-05-05 17:37 | 42.23961 | -71.32432 | 6960 ft | 316 kts | 21° |
| 2026-05-05 17:37 | 42.25954 | -71.31178 | 6937 ft | 315 kts | 21° |
| 2026-05-05 17:38 | 42.27941 | -71.29930 | 6940 ft | 314 kts | 20° |
| 2026-05-05 17:38 | 42.29924 | -71.28679 | 6969 ft | 315 kts | 21° |
| 2026-05-05 17:38 | 42.31904 | -71.27418 | 6951 ft | 315 kts | 21° |
| 2026-05-05 17:38 | 42.33878 | -71.26155 | 6929 ft | 314 kts | 21° |
| 2026-05-05 17:39 | 42.35847 | -71.24892 | 6960 ft | 314 kts | 21° |
| 2026-05-05 17:39 | 42.37829 | -71.23620 | 6675 ft | 314 kts | 21° |
| 2026-05-05 17:39 | 42.39760 | -71.22386 | 6215 ft | 308 kts | 21° |
| 2026-05-05 17:39 | 42.41656 | -71.21175 | 5789 ft | 291 kts | 20° |
| 2026-05-05 17:40 | 42.43464 | -71.20028 | 5197 ft | 283 kts | 21° |
| 2026-05-05 17:40 | 42.45216 | -71.18920 | 4736 ft | 271 kts | 21° |
| 2026-05-05 17:40 | 42.46886 | -71.17854 | 4259 ft | 262 kts | 21° |
| 2026-05-05 17:40 | 42.48526 | -71.16822 | 3706 ft | 256 kts | 21° |
| 2026-05-05 17:41 | 42.50123 | -71.15834 | 3211 ft | 249 kts | 21° |
| 2026-05-05 17:41 | 42.51678 | -71.14888 | 2793 ft | 239 kts | 23° |
| 2026-05-05 17:41 | 42.52918 | -71.13500 | 2401 ft | 240 kts | 56° |
| 2026-05-05 17:41 | 42.53483 | -71.11449 | 2092 ft | 226 kts | 90° |
| 2026-05-05 17:42 | 42.53458 | -71.09358 | 2033 ft | 213 kts | 102° |
| 2026-05-05 17:42 | 42.53253 | -71.07490 | 2013 ft | 191 kts | 116° |
| 2026-05-05 17:42 | 42.52635 | -71.05986 | 1966 ft | 185 kts | 133° |
| 2026-05-05 17:42 | 42.51877 | -71.04582 | 1953 ft | 184 kts | 135° |
| 2026-05-05 17:43 | 42.51089 | -71.03241 | 1943 ft | 183 kts | 135° |
| 2026-05-05 17:43 | 42.50291 | -71.01906 | 1945 ft | 182 kts | 136° |
| 2026-05-05 17:43 | 42.49482 | -71.00573 | 1941 ft | 183 kts | 136° |
| 2026-05-05 17:43 | 42.48682 | -70.99236 | 1941 ft | 183 kts | 136° |
| 2026-05-05 17:44 | 42.47891 | -70.97871 | 1943 ft | 184 kts | 137° |
| 2026-05-05 17:44 | 42.47073 | -70.96565 | 1937 ft | 179 kts | 147° |
| 2026-05-05 17:44 | 42.46025 | -70.95765 | 1822 ft | 167 kts | 173° |
| 2026-05-05 17:44 | 42.45006 | -70.95994 | 1581 ft | 139 kts | 207° |
| 2026-05-05 17:45 | 42.44224 | -70.96607 | 1404 ft | 128 kts | 207° |
| 2026-05-05 17:45 | 42.43396 | -70.97100 | 1346 ft | 132 kts | 205° |
| 2026-05-05 17:45 | 42.42512 | -70.97558 | 1314 ft | 141 kts | 203° |
| 2026-05-05 17:45 | 42.41589 | -70.98010 | 1051 ft | 140 kts | 200° |
| 2026-05-05 17:46 | 42.40678 | -70.98451 | 742 ft | 139 kts | 200° |
| 2026-05-05 17:46 | 42.39777 | -70.98897 | 580 ft | 141 kts | 201° |
| 2026-05-05 17:46 | 42.38840 | -70.99366 | 420 ft | 143 kts | 198° |
| 2026-05-05 17:46 | 42.37885 | -70.99835 | 141 ft | 149 kts | 200° |
| 2026-05-05 17:47 | 42.36972 | -71.00276 | 31 ft | 123 kts | 200° |
| 2026-05-05 17:47 | 42.36354 | -71.00576 | 29 ft | 71 kts | 202° |
| 2026-05-05 17:47 | 42.36067 | -71.00725 | 32 ft | 31 kts | 210° |
| 2026-05-05 17:47 | 42.35961 | -71.00847 | 31 ft | 29 kts | 230° |
| 2026-05-05 17:48 | 42.35851 | -71.01029 | 30 ft | 19 kts | 241° |
| 2026-05-05 17:48 | 42.35837 | -71.01178 | 30 ft | 12 kts | 277° |
| 2026-05-05 17:48 | 42.35844 | -71.01238 | 30 ft | 2 kts | 279° |
| 2026-05-05 17:48 | 42.35845 | -71.01252 | 30 ft | 3 kts | 279° |
| 2026-05-05 17:49 | 42.35851 | -71.01295 | 29 ft | 8 kts | 279° |
| 2026-05-05 17:49 | 42.35863 | -71.01397 | 30 ft | 13 kts | 277° |
| 2026-05-05 17:49 | 42.35883 | -71.01553 | 30 ft | 14 kts | 281° |
| 2026-05-05 17:49 | 42.35896 | -71.01646 | 30 ft | 14 kts | 279° |
| 2026-05-05 17:50 | 42.35916 | -71.01777 | 30 ft | 11 kts | 289° |
| 2026-05-05 17:50 | 42.35955 | -71.01796 | 30 ft | 3 kts | 11° |
| 2026-05-05 17:50 | 42.35972 | -71.01792 | 30 ft | 2 kts | 11° |
| 2026-05-05 17:50 | 42.35973 | -71.01791 | 30 ft | 0 kts | 11° |